Time;durP1;ratioP1;P1;durP2;ratioP2;P2;SDS_P1;SDS_P2;PMS_P1;PMS_P2;Temp;Humidity;BMP_temperature;BMP_pressure;BME280_temperature;BME280_humidity;BME280_pressure;Samples;Min_cycle;Max_cycle;Signal;HPM_P1;HPM_P2
2023/04/15 00:02:57;;;;;;;;;;;;;;;;;;5095766;28;19945;-73
2023/04/15 00:06:00;;;;;;;;;;;;;;;;;;5096038;28;19920;-73
2023/04/15 00:09:03;;;;;;;;;;;;;;;;;;5095920;28;20430;-73
2023/04/15 00:12:05;;;;;;;;;;;;;;;;;;5095936;28;19965;-72
2023/04/15 00:15:09;;;;;;;;;;;;;;;;;;5083335;28;20284;-73
2023/04/15 00:18:12;;;;;;;;;;;;;;;;;;5083132;28;19922;-73
2023/04/15 00:21:14;;;;;;;;;;;;;;;;;;5095749;28;19923;-73
2023/04/15 00:24:17;;;;;;;;;;;;;;;;;;5095383;28;19935;-73
2023/04/15 00:27:20;;;;;;;;;;;;;;;;;;5095450;28;19923;-72
2023/04/15 00:30:23;;;;;;;;;;;;;;;;;;5083070;28;19919;-72
2023/04/15 00:33:26;;;;;;;;;;;;;;;;;;5081530;28;19919;-72
2023/04/15 00:36:29;;;;;;;;;;;;;;;;;;5094690;28;19958;-72
2023/04/15 00:39:32;;;;;;;;;;;;;;;;;;5095153;28;19930;-71
2023/04/15 00:42:35;;;;;;;;;;;;;;;;;;5094783;28;20073;-72
2023/04/15 00:45:37;;;;;;;;;;;;;;;;;;5094355;28;20062;-72
2023/04/15 00:48:41;;;;;;;;;;;;;;;;;;5094857;28;19923;-72
2023/04/15 00:51:43;;;;;;;;;;;;;;;;;;5094528;28;20041;-72
2023/04/15 00:54:46;;;;;;;;;;;;;;;;;;5094501;28;19957;-72
2023/04/15 00:57:49;;;;;;;;;;;;;;;;;;5094373;28;19939;-72
2023/04/15 01:00:53;;;;;;;;;;;;;;;;;;5094017;28;20322;-72
2023/04/15 01:03:56;;;;;;;;;;;;;;;;;;5094139;28;20437;-72
2023/04/15 01:06:59;;;;;;;;;;;;;;;;;;5094045;28;19919;-73
2023/04/15 01:10:02;;;;;;;;;;;;;;;;;;5094223;28;19923;-72
2023/04/15 01:13:05;;;;;;;;;;;;;;;;;;5094662;28;19963;-72
2023/04/15 01:16:12;;;;;;;;;;;;;;;;;;5094469;28;19939;-74
2023/04/15 01:19:15;;;;;;;;;;;;;;;;;;5094378;28;19977;-74
2023/04/15 01:22:18;;;;;;;;;;;;;;;;;;5081052;28;20009;-74
2023/04/15 01:25:22;;;;;;;;;;;;;;;;;;5094450;28;19923;-74
2023/04/15 01:28:25;;;;;;;;;;;;;;;;;;5081772;28;20399;-74
2023/04/15 01:31:27;;;;;;;;;;;;;;;;;;5094395;28;19966;-74
2023/04/15 01:34:30;;;;;;;;;;;;;;;;;;5094285;28;19958;-74
2023/04/15 01:37:53;;;;;;;;;;;;;;;;;;5093712;28;20296;-74
2023/04/15 01:40:57;;;;;;;;;;;;;;;;;;5094103;28;19923;-75
2023/04/15 01:44:45;;;;;;;;;;;;;;;;;;5093790;28;19919;-74
2023/04/15 01:47:50;;;;;;;;;;;;;;;;;;5080995;28;20399;-74
2023/04/15 01:50:56;;;;;;;;;;;;;;;;;;5093961;28;19919;-74
2023/04/15 01:54:01;;;;;;;;;;;;;;;;;;5093812;28;19965;-74
2023/04/15 01:57:05;;;;;;;;;;;;;;;;;;5081135;28;19970;-75
2023/04/15 02:00:12;;;;;;;;;;;;;;;;;;5080510;28;19931;-74
2023/04/15 02:03:19;;;;;;;;;;;;;;;;;;5081255;28;19972;-74
2023/04/15 02:06:24;;;;;;;;;;;;;;;;;;5081206;28;20295;-74
2023/04/15 02:09:28;;;;;;;;;;;;;;;;;;5093746;28;19919;-74
2023/04/15 02:12:33;;;;;;;;;;;;;;;;;;5081098;28;20007;-74
2023/04/15 02:15:37;;;;;;;;;;;;;;;;;;5093641;28;20375;-74
2023/04/15 02:18:41;;;;;;;;;;;;;;;;;;5093642;28;19919;-75
2023/04/15 02:21:47;;;;;;;;;;;;;;;;;;5080938;28;20437;-74
2023/04/15 02:24:55;;;;;;;;;;;;;;;;;;5080592;28;19920;-74
2023/04/15 02:27:59;;;;;;;;;;;;;;;;;;5069439;28;19919;-74
2023/04/15 02:31:05;;;;;;;;;;;;;;;;;;5092620;28;20280;-74
2023/04/15 02:34:09;;;;;;;;;;;;;;;;;;5092371;28;19966;-75
2023/04/15 02:37:15;;;;;;;;;;;;;;;;;;5092828;28;19936;-74
2023/04/15 02:40:18;;;;;;;;;;;;;;;;;;5080508;28;19923;-74
2023/04/15 02:43:23;;;;;;;;;;;;;;;;;;5080567;28;19961;-74
2023/04/15 02:46:28;;;;;;;;;;;;;;;;;;5080445;28;19966;-74
2023/04/15 02:49:33;;;;;;;;;;;;;;;;;;5080845;28;20054;-74
2023/04/15 02:52:37;;;;;;;;;;;;;;;;;;5080714;28;19919;-75
2023/04/15 02:55:42;;;;;;;;;;;;;;;;;;5080532;28;19935;-75
2023/04/15 02:58:49;;;;;;;;;;;;;;;;;;5096222;28;19931;-75
2023/04/15 03:01:55;;;;;;;;;;;;;;;;;;5097189;28;19969;-74
2023/04/15 03:05:03;;;;;;;;;;;;;;;;;;5096941;28;20371;-74
2023/04/15 03:08:07;;;;;;;;;;;;;;;;;;5084323;28;19920;-74
2023/04/15 03:11:11;;;;;;;;;;;;;;;;;;5084582;28;19919;-74
2023/04/15 03:14:16;;;;;;;;;;;;;;;;;;5084490;28;19920;-74
2023/04/15 03:17:23;;;;;;;;;;;;;;;;;;5084371;28;19919;-74
2023/04/15 03:20:27;;;;;;;;;;;;;;;;;;5084448;28;19966;-74
2023/04/15 03:23:32;;;;;;;;;;;;;;;;;;5096649;28;20050;-74
2023/04/15 03:26:36;;;;;;;;;;;;;;;;;;5084226;28;19919;-74
2023/04/15 03:29:46;;;;;;;;;;;;;;;;;;5084150;28;19923;-74
2023/04/15 03:32:52;;;;;;;;;;;;;;;;;;5082848;28;19965;-74
2023/04/15 03:35:56;;;;;;;;;;;;;;;;;;5096551;28;19974;-74
2023/04/15 03:39:01;;;;;;;;;;;;;;;;;;5096468;28;20313;-74
2023/04/15 03:42:06;;;;;;;;;;;;;;;;;;5096454;28;19922;-74
2023/04/15 03:45:10;;;;;;;;;;;;;;;;;;5096427;28;19919;-74
2023/04/15 03:48:15;;;;;;;;;;;;;;;;;;5096349;28;19927;-74
2023/04/15 03:51:19;;;;;;;;;;;;;;;;;;5096353;28;19923;-74
2023/04/15 03:54:24;;;;;;;;;;;;;;;;;;5096185;28;20291;-74
2023/04/15 03:57:28;;;;;;;;;;;;;;;;;;5096041;28;19919;-74
2023/04/15 04:00:32;;;;;;;;;;;;;;;;;;5096090;28;20300;-74
2023/04/15 04:03:37;;;;;;;;;;;;;;;;;;5096084;28;19919;-74
2023/04/15 04:06:41;;;;;;;;;;;;;;;;;;5095970;28;19965;-74
2023/04/15 04:09:45;;;;;;;;;;;;;;;;;;5095018;28;20287;-74
2023/04/15 04:12:50;;;;;;;;;;;;;;;;;;5095920;28;19919;-74
2023/04/15 04:15:54;;;;;;;;;;;;;;;;;;5095826;28;20279;-74
2023/04/15 04:18:59;;;;;;;;;;;;;;;;;;5095802;28;20425;-74
2023/04/15 04:22:03;;;;;;;;;;;;;;;;;;5095382;28;20311;-74
2023/04/15 04:25:08;;;;;;;;;;;;;;;;;;5094881;28;20052;-74
2023/04/15 04:28:16;;;;;;;;;;;;;;;;;;5095299;28;19919;-76
2023/04/15 04:31:21;;;;;;;;;;;;;;;;;;5073938;28;19920;-74
2023/04/15 04:34:25;;;;;;;;;;;;;;;;;;5074664;28;20392;-74
2023/04/15 04:37:29;;;;;;;;;;;;;;;;;;5073928;28;19924;-74
2023/04/15 04:40:34;;;;;;;;;;;;;;;;;;5073695;28;19923;-75
2023/04/15 04:43:39;;;;;;;;;;;;;;;;;;5074802;28;20395;-75
2023/04/15 04:46:43;;;;;;;;;;;;;;;;;;5074426;28;20300;-75
2023/04/15 04:49:47;;;;;;;;;;;;;;;;;;5074611;28;19965;-75
2023/04/15 04:52:52;;;;;;;;;;;;;;;;;;5083495;28;19919;-74
2023/04/15 04:55:57;;;;;;;;;;;;;;;;;;5093625;28;19919;-75
2023/04/15 04:59:01;;;;;;;;;;;;;;;;;;5092352;28;19927;-75
2023/04/15 05:02:05;;;;;;;;;;;;;;;;;;5093525;28;20394;-75
2023/04/15 05:05:10;;;;;;;;;;;;;;;;;;5089178;28;20045;-75
2023/04/15 05:08:15;;;;;;;;;;;;;;;;;;5091224;28;20568;-75
2023/04/15 05:11:19;;;;;;;;;;;;;;;;;;5091906;28;19918;-75
2023/04/15 05:14:23;;;;;;;;;;;;;;;;;;5092481;28;19923;-75
2023/04/15 05:17:30;;;;;;;;;;;;;;;;;;5093023;28;19965;-75
2023/04/15 05:20:34;;;;;;;;;;;;;;;;;;5090374;28;20395;-74
2023/04/15 05:23:40;;;;;;;;;;;;;;;;;;5091530;28;19969;-76
2023/04/15 05:26:45;;;;;;;;;;;;;;;;;;5092362;28;19965;-76
2023/04/15 05:29:49;;;;;;;;;;;;;;;;;;5092904;28;20284;-76
2023/04/15 05:32:53;;;;;;;;;;;;;;;;;;5090640;28;20470;-75
2023/04/15 05:36:01;;;;;;;;;;;;;;;;;;5078748;28;19969;-73
2023/04/15 05:39:16;;;;;;;;;;;;;;;;;;5090911;28;19938;-73
2023/04/15 05:42:21;;;;;;;;;;;;;;;;;;5091452;28;19970;-73
2023/04/15 05:45:26;;;;;;;;;;;;;;;;;;5092031;28;19927;-73
2023/04/15 05:48:30;;;;;;;;;;;;;;;;;;5092553;28;20334;-73
2023/04/15 05:51:36;;;;;;;;;;;;;;;;;;5078030;28;19956;-73
2023/04/15 05:54:40;;;;;;;;;;;;;;;;;;5092631;28;19938;-73
2023/04/15 05:57:45;;;;;;;;;;;;;;;;;;5092524;28;19923;-74
2023/04/15 06:00:49;;;;;;;;;;;;;;;;;;5092298;28;20061;-75
2023/04/15 06:03:54;;;;;;;;;;;;;;;;;;5090046;28;19970;-74
2023/04/15 06:06:58;;;;;;;;;;;;;;;;;;5090510;28;19923;-74
2023/04/15 06:10:25;;;;;;;;;;;;;;;;;;5091382;28;19919;-74
2023/04/15 06:13:29;;;;;;;;;;;;;;;;;;5092166;28;19919;-75
2023/04/15 06:16:35;;;;;;;;;;;;;;;;;;5087122;28;19923;-74
2023/04/15 06:19:39;;;;;;;;;;;;;;;;;;5089939;28;20390;-74
2023/04/15 06:22:43;;;;;;;;;;;;;;;;;;5077322;28;19931;-75
2023/04/15 06:25:48;;;;;;;;;;;;;;;;;;5091700;28;19923;-74
2023/04/15 06:28:52;;;;;;;;;;;;;;;;;;5086645;28;19935;-74
2023/04/15 06:31:56;;;;;;;;;;;;;;;;;;5089967;28;19919;-74
2023/04/15 06:35:01;;;;;;;;;;;;;;;;;;5090864;28;19943;-74
2023/04/15 06:38:05;;;;;;;;;;;;;;;;;;5092884;28;19919;-75
2023/04/15 06:41:10;;;;;;;;;;;;;;;;;;5091992;28;19927;-74
2023/04/15 06:47:59;;;;;;;;;;;;;;;;;;5050456;28;19946;-77
2023/04/15 06:51:03;;;;;;;;;;;;;;;;;;5092589;28;20403;-77
2023/04/15 06:54:07;;;;;;;;;;;;;;;;;;5091847;28;20288;-77
2023/04/15 06:57:12;;;;;;;;;;;;;;;;;;5092062;28;20213;-77
2023/04/15 07:00:17;;;;;;;;;;;;;;;;;;5092459;28;19927;-76
2023/04/15 07:03:21;;;;;;;;;;;;;;;;;;5092795;28;19970;-76
2023/04/15 07:06:26;;;;;;;;;;;;;;;;;;5093089;28;20295;-76
2023/04/15 07:09:31;;;;;;;;;;;;;;;;;;5092564;28;19919;-76
2023/04/15 07:12:35;;;;;;;;;;;;;;;;;;5093005;28;19919;-77
2023/04/15 07:15:40;;;;;;;;;;;;;;;;;;5091578;28;20509;-77
2023/04/15 07:18:44;;;;;;;;;;;;;;;;;;5078446;28;19957;-77
2023/04/15 07:21:48;;;;;;;;;;;;;;;;;;5090578;28;19923;-74
2023/04/15 07:24:52;;;;;;;;;;;;;;;;;;5092296;28;20391;-74
2023/04/15 07:27:57;;;;;;;;;;;;;;;;;;5092306;28;19959;-75
2023/04/15 07:31:01;;;;;;;;;;;;;;;;;;5092540;28;20420;-74
2023/04/15 07:34:06;;;;;;;;;;;;;;;;;;5092721;28;19972;-75
2023/04/15 07:37:10;;;;;;;;;;;;;;;;;;5092810;28;19965;-74
2023/04/15 07:40:15;;;;;;;;;;;;;;;;;;5092632;28;20386;-76
2023/04/15 07:43:20;;;;;;;;;;;;;;;;;;5093578;28;20276;-75
2023/04/15 07:46:26;;;;;;;;;;;;;;;;;;5095416;28;19920;-77
2023/04/15 07:49:30;;;;;;;;;;;;;;;;;;5096466;28;20016;-74
2023/04/15 07:52:38;;;;;;;;;;;;;;;;;;5096286;28;19957;-75
2023/04/15 07:55:42;;;;;;;;;;;;;;;;;;5096351;28;19919;-74
2023/04/15 07:58:46;;;;;;;;;;;;;;;;;;5095848;28;19927;-74
2023/04/15 08:01:50;;;;;;;;;;;;;;;;;;5095479;28;20053;-75
2023/04/15 08:04:55;;;;;;;;;;;;;;;;;;5089913;28;20291;-74
2023/04/15 08:08:00;;;;;;;;;;;;;;;;;;5096031;28;19988;-73
2023/04/15 08:11:04;;;;;;;;;;;;;;;;;;5096011;28;19965;-73
2023/04/15 08:14:08;;;;;;;;;;;;;;;;;;5095991;28;19993;-73
2023/04/15 08:17:13;;;;;;;;;;;;;;;;;;5095874;28;19919;-74
2023/04/15 08:20:17;;;;;;;;;;;;;;;;;;5095851;28;20431;-74
2023/04/15 08:23:21;;;;;;;;;;;;;;;;;;5095748;28;19923;-74
2023/04/15 08:26:27;;;;;;;;;;;;;;;;;;5095649;28;20300;-74
2023/04/15 08:29:32;;;;;;;;;;;;;;;;;;5095668;28;19919;-74
2023/04/15 08:32:36;;;;;;;;;;;;;;;;;;5095606;28;20299;-76
2023/04/15 08:35:40;;;;;;;;;;;;;;;;;;5095486;28;19919;-75
2023/04/15 08:38:45;;;;;;;;;;;;;;;;;;5095491;28;20124;-76
2023/04/15 08:41:49;;;;;;;;;;;;;;;;;;5095357;28;20441;-75
2023/04/15 08:44:54;;;;;;;;;;;;;;;;;;5095380;28;19919;-76
2023/04/15 08:47:58;;;;;;;;;;;;;;;;;;5095282;28;19919;-76
2023/04/15 08:51:03;;;;;;;;;;;;;;;;;;5095174;28;19919;-75
2023/04/15 08:54:07;;;;;;;;;;;;;;;;;;5095000;28;20462;-75
2023/04/15 08:57:12;;;;;;;;;;;;;;;;;;5094133;28;20049;-75
2023/04/15 09:00:16;;;;;;;;;;;;;;;;;;5074169;28;19928;-74
2023/04/15 09:03:22;;;;;;;;;;;;;;;;;;5074250;28;20012;-78
2023/04/15 09:06:26;;;;;;;;;;;;;;;;;;5088237;28;19919;-75
2023/04/15 09:09:31;;;;;;;;;;;;;;;;;;5094211;28;19923;-76
2023/04/15 09:12:36;;;;;;;;;;;;;;;;;;5093487;28;19965;-75
2023/04/15 09:15:40;;;;;;;;;;;;;;;;;;5094193;28;19927;-74
2023/04/15 09:18:45;;;;;;;;;;;;;;;;;;5094368;28;19919;-74
2023/04/15 09:21:50;;;;;;;;;;;;;;;;;;5094155;28;20288;-75
2023/04/15 09:24:54;;;;;;;;;;;;;;;;;;5094285;28;19923;-75
2023/04/15 09:27:58;;;;;;;;;;;;;;;;;;5094374;28;19919;-75
2023/04/15 09:31:03;;;;;;;;;;;;;;;;;;5093591;28;19964;-75
2023/04/15 09:34:07;;;;;;;;;;;;;;;;;;5094456;28;19919;-75
2023/04/15 09:37:12;;;;;;;;;;;;;;;;;;5094257;28;19919;-75
2023/04/15 09:40:16;;;;;;;;;;;;;;;;;;5093117;28;20292;-76
2023/04/15 09:43:21;;;;;;;;;;;;;;;;;;5073920;28;19943;-76
2023/04/15 09:46:25;;;;;;;;;;;;;;;;;;5073893;28;19919;-76
2023/04/15 09:49:29;;;;;;;;;;;;;;;;;;5073889;28;19965;-76
2023/04/15 09:52:34;;;;;;;;;;;;;;;;;;5061108;28;20284;-75
2023/04/15 09:55:38;;;;;;;;;;;;;;;;;;5073640;28;20425;-75
2023/04/15 09:58:43;;;;;;;;;;;;;;;;;;5073479;28;20292;-74
2023/04/15 10:01:47;;;;;;;;;;;;;;;;;;5073599;28;20413;-74
2023/04/15 10:04:52;;;;;;;;;;;;;;;;;;5073516;28;20362;-74
2023/04/15 10:07:56;;;;;;;;;;;;;;;;;;5073011;28;19966;-74
2023/04/15 10:11:01;;;;;;;;;;;;;;;;;;5073430;28;20376;-74
2023/04/15 10:14:06;;;;;;;;;;;;;;;;;;5061140;28;19920;-74
2023/04/15 10:17:11;;;;;;;;;;;;;;;;;;5073418;28;19965;-74
2023/04/15 10:20:15;;;;;;;;;;;;;;;;;;5073498;28;19920;-78
2023/04/15 10:23:20;;;;;;;;;;;;;;;;;;5073281;28;19923;-77
2023/04/15 10:26:25;;;;;;;;;;;;;;;;;;5073497;28;19919;-74
2023/04/15 10:29:29;;;;;;;;;;;;;;;;;;5073368;28;19927;-76
2023/04/15 10:32:33;;;;;;;;;;;;;;;;;;5073338;28;19919;-77
2023/04/15 10:35:39;;;;;;;;;;;;;;;;;;5073099;28;20045;-77
2023/04/15 10:38:45;;;;;;;;;;;;;;;;;;5073060;28;19965;-77
2023/04/15 10:41:50;;;;;;;;;;;;;;;;;;5073231;28;19936;-77
2023/04/15 10:44:54;;;;;;;;;;;;;;;;;;5072880;28;20054;-74
2023/04/15 10:47:58;;;;;;;;;;;;;;;;;;5073059;28;19935;-74
2023/04/15 10:51:03;;;;;;;;;;;;;;;;;;5072895;28;20012;-78
2023/04/15 10:54:08;;;;;;;;;;;;;;;;;;5072978;28;19959;-74
2023/04/15 10:57:13;;;;;;;;;;;;;;;;;;5072916;28;19920;-74
2023/04/15 11:00:17;;;;;;;;;;;;;;;;;;5072580;28;19928;-76
2023/04/15 11:03:21;;;;;;;;;;;;;;;;;;5072861;28;19965;-75
2023/04/15 11:06:26;;;;;;;;;;;;;;;;;;5071570;28;19919;-75
2023/04/15 11:09:32;;;;;;;;;;;;;;;;;;5071666;28;19920;-76
2023/04/15 11:12:36;;;;;;;;;;;;;;;;;;5072854;28;19920;-77
2023/04/15 11:15:41;;;;;;;;;;;;;;;;;;5072881;28;19919;-76
2023/04/15 11:18:45;;;;;;;;;;;;;;;;;;5074420;28;20313;-77
2023/04/15 11:21:50;;;;;;;;;;;;;;;;;;5076922;28;19920;-74
2023/04/15 11:24:55;;;;;;;;;;;;;;;;;;5075999;28;19923;-76
2023/04/15 11:27:59;;;;;;;;;;;;;;;;;;5076506;28;20058;-75
2023/04/15 11:31:03;;;;;;;;;;;;;;;;;;5076263;28;20532;-74
2023/04/15 11:34:08;;;;;;;;;;;;;;;;;;5076202;28;20129;-78
2023/04/15 11:37:12;;;;;;;;;;;;;;;;;;5076095;28;20403;-78
2023/04/15 11:40:18;;;;;;;;;;;;;;;;;;5076346;28;20380;-78
2023/04/15 11:43:24;;;;;;;;;;;;;;;;;;5076198;28;19923;-76
2023/04/15 11:46:28;;;;;;;;;;;;;;;;;;5076426;28;20428;-75
2023/04/15 11:49:33;;;;;;;;;;;;;;;;;;5076234;28;19973;-70
2023/04/15 11:52:36;;;;;;;;;;;;;;;;;;5076159;28;19965;-75
2023/04/15 11:55:39;;;;;;;;;;;;;;;;;;5076089;28;19919;-74
2023/04/15 11:58:43;;;;;;;;;;;;;;;;;;5075709;28;20029;-78
2023/04/15 12:01:47;;;;;;;;;;;;;;;;;;5075922;28;19971;-75
2023/04/15 12:04:51;;;;;;;;;;;;;;;;;;5075857;28;19985;-78
2023/04/15 12:07:54;;;;;;;;;;;;;;;;;;5075833;28;19919;-77
2023/04/15 12:10:57;;;;;;;;;;;;;;;;;;5075694;28;20296;-79
2023/04/15 12:14:00;;;;;;;;;;;;;;;;;;5075792;28;20284;-77
2023/04/15 12:17:03;;;;;;;;;;;;;;;;;;5075967;28;19966;-80
2023/04/15 12:20:06;;;;;;;;;;;;;;;;;;5075566;28;20257;-77
2023/04/15 12:23:09;;;;;;;;;;;;;;;;;;5075705;28;19920;-78
2023/04/15 12:26:12;;;;;;;;;;;;;;;;;;5075528;28;19974;-78
2023/04/15 12:29:16;;;;;;;;;;;;;;;;;;5075436;28;19965;-79
2023/04/15 12:32:20;;;;;;;;;;;;;;;;;;5076035;28;20333;-79
2023/04/15 12:35:23;;;;;;;;;;;;;;;;;;5075386;28;19919;-78
2023/04/15 12:38:26;;;;;;;;;;;;;;;;;;5075447;28;20004;-78
2023/04/15 12:41:29;;;;;;;;;;;;;;;;;;5075251;28;20007;-78
2023/04/15 12:44:32;;;;;;;;;;;;;;;;;;5075108;28;20395;-80
2023/04/15 12:47:35;;;;;;;;;;;;;;;;;;5075082;28;19919;-79
2023/04/15 12:50:37;;;;;;;;;;;;;;;;;;5075135;28;19935;-79
2023/04/15 12:53:41;;;;;;;;;;;;;;;;;;5075048;28;19919;-80
2023/04/15 12:56:45;;;;;;;;;;;;;;;;;;5074963;28;19996;-78
2023/04/15 12:59:48;;;;;;;;;;;;;;;;;;5074157;28;20304;-79
2023/04/15 13:02:51;;;;;;;;;;;;;;;;;;5074475;28;19935;-81
2023/04/15 13:05:54;;;;;;;;;;;;;;;;;;5073500;28;19997;-77
2023/04/15 13:08:57;;;;;;;;;;;;;;;;;;5074677;28;19919;-75
2023/04/15 13:12:00;;;;;;;;;;;;;;;;;;5074654;28;20445;-75
2023/04/15 13:15:03;;;;;;;;;;;;;;;;;;5074565;28;19939;-75
2023/04/15 13:18:07;;;;;;;;;;;;;;;;;;5074502;28;19954;-72
2023/04/15 13:21:10;;;;;;;;;;;;;;;;;;5074364;28;19977;-73
2023/04/15 13:24:13;;;;;;;;;;;;;;;;;;5074233;28;19924;-73
2023/04/15 13:27:16;;;;;;;;;;;;;;;;;;5074343;28;19989;-70
2023/04/15 13:30:19;;;;;;;;;;;;;;;;;;5074236;28;19935;-73
2023/04/15 13:33:22;;;;;;;;;;;;;;;;;;5073927;28;19955;-74
2023/04/15 13:36:26;;;;;;;;;;;;;;;;;;5074092;28;19966;-73
2023/04/15 13:39:29;;;;;;;;;;;;;;;;;;5074273;28;20291;-74
2023/04/15 13:42:33;;;;;;;;;;;;;;;;;;5077743;28;20052;-74
2023/04/15 13:45:36;;;;;;;;;;;;;;;;;;5093900;28;19923;-74
2023/04/15 13:48:39;;;;;;;;;;;;;;;;;;5093629;28;20395;-74
2023/04/15 13:51:41;;;;;;;;;;;;;;;;;;5093714;28;19918;-75
2023/04/15 13:54:44;;;;;;;;;;;;;;;;;;5093683;28;19926;-75
2023/04/15 13:57:55;;;;;;;;;;;;;;;;;;5093839;28;19919;-76
2023/04/15 14:01:03;;;;;;;;;;;;;;;;;;5047882;28;19963;-76
2023/04/15 14:04:06;;;;;;;;;;;;;;;;;;5053208;28;19923;-75
2023/04/15 14:07:12;;;;;;;;;;;;;;;;;;5053279;28;19935;-76
2023/04/15 14:10:16;;;;;;;;;;;;;;;;;;5037732;28;20399;-75
2023/04/15 14:13:22;;;;;;;;;;;;;;;;;;5053147;28;20428;-75
2023/04/15 14:16:26;;;;;;;;;;;;;;;;;;5053121;28;20395;-75
2023/04/15 14:19:29;;;;;;;;;;;;;;;;;;5052646;28;19920;-75
2023/04/15 14:22:36;;;;;;;;;;;;;;;;;;5052252;28;20041;-75
2023/04/15 14:25:40;;;;;;;;;;;;;;;;;;5053237;28;20285;-74
2023/04/15 14:28:43;;;;;;;;;;;;;;;;;;5052897;28;19920;-76
2023/04/15 14:31:48;;;;;;;;;;;;;;;;;;5040629;28;19920;-75
2023/04/15 14:34:51;;;;;;;;;;;;;;;;;;5052841;28;19920;-75
2023/04/15 14:37:54;;;;;;;;;;;;;;;;;;5052940;28;20369;-75
2023/04/15 14:40:58;;;;;;;;;;;;;;;;;;5051468;28;19963;-74
2023/04/15 14:44:00;;;;;;;;;;;;;;;;;;5050670;28;19924;-74
2023/04/15 14:47:06;;;;;;;;;;;;;;;;;;5051885;28;19919;-73
2023/04/15 14:50:09;;;;;;;;;;;;;;;;;;5040264;28;19979;-74
2023/04/15 14:53:12;;;;;;;;;;;;;;;;;;5053345;28;20447;-75
2023/04/15 14:56:16;;;;;;;;;;;;;;;;;;5056891;28;19958;-75
2023/04/15 14:59:19;;;;;;;;;;;;;;;;;;5068522;28;20444;-74
2023/04/15 15:02:22;;;;;;;;;;;;;;;;;;5076856;28;20299;-74
2023/04/15 15:05:25;;;;;;;;;;;;;;;;;;5076594;28;19939;-73
2023/04/15 15:08:29;;;;;;;;;;;;;;;;;;5076549;28;20007;-73
2023/04/15 15:11:32;;;;;;;;;;;;;;;;;;5076522;28;19919;-74
2023/04/15 15:14:35;;;;;;;;;;;;;;;;;;5076124;28;19919;-74
2023/04/15 15:17:38;;;;;;;;;;;;;;;;;;5075890;28;19920;-74
2023/04/15 15:20:41;;;;;;;;;;;;;;;;;;5075839;28;20066;-74
2023/04/15 15:23:44;;;;;;;;;;;;;;;;;;5071344;28;19928;-74
2023/04/15 15:26:48;;;;;;;;;;;;;;;;;;5072335;28;20403;-73
2023/04/15 15:29:50;;;;;;;;;;;;;;;;;;5075929;28;19962;-73
2023/04/15 15:32:54;;;;;;;;;;;;;;;;;;5076124;28;19971;-74
2023/04/15 15:35:57;;;;;;;;;;;;;;;;;;5076256;28;19988;-74
2023/04/15 15:39:00;;;;;;;;;;;;;;;;;;5076277;28;19919;-80
2023/04/15 15:42:03;;;;;;;;;;;;;;;;;;5076272;28;19919;-75
2023/04/15 15:45:06;;;;;;;;;;;;;;;;;;5076167;28;19970;-75
2023/04/15 15:48:09;;;;;;;;;;;;;;;;;;5076216;28;19958;-75
2023/04/15 15:51:12;;;;;;;;;;;;;;;;;;5076102;28;19966;-75
2023/04/15 15:54:15;;;;;;;;;;;;;;;;;;5076092;28;19923;-75
2023/04/15 15:57:17;;;;;;;;;;;;;;;;;;5076083;28;19919;-75
2023/04/15 16:00:22;;;;;;;;;;;;;;;;;;5075797;28;19982;-75
2023/04/15 16:03:25;;;;;;;;;;;;;;;;;;5073157;28;20002;-75
2023/04/15 16:06:30;;;;;;;;;;;;;;;;;;5075162;28;20391;-73
2023/04/15 16:09:33;;;;;;;;;;;;;;;;;;5069498;28;19935;-75
2023/04/15 16:12:36;;;;;;;;;;;;;;;;;;5054734;28;20035;-73
2023/04/15 16:15:39;;;;;;;;;;;;;;;;;;5057624;28;20404;-73
2023/04/15 16:18:42;;;;;;;;;;;;;;;;;;5071700;28;20391;-73
2023/04/15 16:21:45;;;;;;;;;;;;;;;;;;5075312;28;19959;-74
2023/04/15 16:24:48;;;;;;;;;;;;;;;;;;5073777;28;19923;-73
2023/04/15 16:27:51;;;;;;;;;;;;;;;;;;5063789;28;19935;-73
2023/04/15 16:30:54;;;;;;;;;;;;;;;;;;5065658;28;20003;-73
2023/04/15 16:33:57;;;;;;;;;;;;;;;;;;5074616;28;20418;-73
2023/04/15 16:37:01;;;;;;;;;;;;;;;;;;5074863;28;19965;-76
2023/04/15 16:40:04;;;;;;;;;;;;;;;;;;5062028;28;19923;-76
2023/04/15 16:43:10;;;;;;;;;;;;;;;;;;5074834;28;20551;-80
2023/04/15 16:46:13;;;;;;;;;;;;;;;;;;5058893;28;20038;-82
2023/04/15 16:49:22;;;;;;;;;;;;;;;;;;5074086;28;19993;-81
2023/04/15 16:52:27;;;;;;;;;;;;;;;;;;5058913;28;19972;-84
2023/04/15 16:55:31;;;;;;;;;;;;;;;;;;5054732;28;20288;-74
2023/04/15 16:58:34;;;;;;;;;;;;;;;;;;5073247;28;20280;-75
2023/04/15 17:01:37;;;;;;;;;;;;;;;;;;5065963;28;19928;-75
2023/04/15 17:04:41;;;;;;;;;;;;;;;;;;5060982;28;20015;-73
2023/04/15 17:07:46;;;;;;;;;;;;;;;;;;5073618;28;20047;-77
2023/04/15 17:10:50;;;;;;;;;;;;;;;;;;5084710;28;20387;-78
2023/04/15 17:13:53;;;;;;;;;;;;;;;;;;5074647;28;20338;-79
2023/04/15 17:16:57;;;;;;;;;;;;;;;;;;5073673;28;19924;-79
2023/04/15 17:19:59;;;;;;;;;;;;;;;;;;5074265;28;19919;-77
2023/04/15 17:23:03;;;;;;;;;;;;;;;;;;5073805;28;19919;-78
2023/04/15 17:26:06;;;;;;;;;;;;;;;;;;5073946;28;20025;-78
2023/04/15 17:29:10;;;;;;;;;;;;;;;;;;5073859;28;19920;-75
2023/04/15 17:32:19;;;;;;;;;;;;;;;;;;5073482;28;19919;-78
2023/04/15 17:35:42;;;;;;;;;;;;;;;;;;5064383;28;20026;-76
2023/04/15 17:39:05;;;;;;;;;;;;;;;;;;5059806;28;19924;-77
2023/04/15 17:42:28;;;;;;;;;;;;;;;;;;5073281;28;19919;-76
2023/04/15 17:45:51;;;;;;;;;;;;;;;;;;5071419;28;19924;-75
2023/04/15 17:49:15;;;;;;;;;;;;;;;;;;5063038;28;19973;-76
2023/04/15 17:52:38;;;;;;;;;;;;;;;;;;5064063;28;19939;-76
2023/04/15 17:56:01;;;;;;;;;;;;;;;;;;5061273;28;19935;-75
2023/04/15 17:59:24;;;;;;;;;;;;;;;;;;5063528;28;19942;-75
2023/04/15 18:02:47;;;;;;;;;;;;;;;;;;5067300;28;19919;-75
2023/04/15 18:06:10;;;;;;;;;;;;;;;;;;5064531;28;20492;-75
2023/04/15 18:09:33;;;;;;;;;;;;;;;;;;5073266;28;19959;-75
2023/04/15 18:12:57;;;;;;;;;;;;;;;;;;5064273;28;19920;-75
2023/04/15 18:16:19;;;;;;;;;;;;;;;;;;5073111;28;19967;-75
2023/04/15 18:19:42;;;;;;;;;;;;;;;;;;5073071;28;20001;-75
2023/04/15 18:22:45;;;;;;;;;;;;;;;;;;5073239;28;19920;-75
2023/04/15 18:25:51;;;;;;;;;;;;;;;;;;5073649;28;19970;-75
2023/04/15 18:28:55;;;;;;;;;;;;;;;;;;5071347;28;19962;-72
2023/04/15 18:31:58;;;;;;;;;;;;;;;;;;5073471;28;19935;-75
2023/04/15 18:35:01;;;;;;;;;;;;;;;;;;5061003;28;19958;-75
2023/04/15 18:38:04;;;;;;;;;;;;;;;;;;5073523;28;19924;-75
2023/04/15 18:41:07;;;;;;;;;;;;;;;;;;5073487;28;19923;-75
2023/04/15 18:44:10;;;;;;;;;;;;;;;;;;5073315;28;19924;-75
2023/04/15 18:47:13;;;;;;;;;;;;;;;;;;5073120;28;20004;-75
2023/04/15 18:50:16;;;;;;;;;;;;;;;;;;5060888;28;19919;-76
2023/04/15 18:53:19;;;;;;;;;;;;;;;;;;5073054;28;20330;-75
2023/04/15 18:56:22;;;;;;;;;;;;;;;;;;5073054;28;19935;-73
2023/04/15 18:59:27;;;;;;;;;;;;;;;;;;5072774;28;19928;-74
2023/04/15 19:02:30;;;;;;;;;;;;;;;;;;5072461;28;19920;-74
2023/04/15 19:05:33;;;;;;;;;;;;;;;;;;5072869;28;19962;-73
2023/04/15 19:08:36;;;;;;;;;;;;;;;;;;5072882;28;20292;-74
2023/04/15 19:11:39;;;;;;;;;;;;;;;;;;5072840;28;19923;-73
2023/04/15 19:14:42;;;;;;;;;;;;;;;;;;5072869;28;20346;-75
2023/04/15 19:17:45;;;;;;;;;;;;;;;;;;5072803;28;19924;-74
2023/04/15 19:20:51;;;;;;;;;;;;;;;;;;5072192;28;19919;-75
2023/04/15 19:23:54;;;;;;;;;;;;;;;;;;5072640;28;19970;-75
2023/04/15 19:26:58;;;;;;;;;;;;;;;;;;5073032;28;19973;-76
2023/04/15 19:30:02;;;;;;;;;;;;;;;;;;5072578;28;19966;-75
2023/04/15 19:33:05;;;;;;;;;;;;;;;;;;5071938;28;19935;-75
2023/04/15 19:36:08;;;;;;;;;;;;;;;;;;5060448;28;19922;-75
2023/04/15 19:39:13;;;;;;;;;;;;;;;;;;5073003;28;19962;-75
2023/04/15 19:42:16;;;;;;;;;;;;;;;;;;5075622;28;19919;-74
2023/04/15 19:45:19;;;;;;;;;;;;;;;;;;5075779;28;19924;-75
2023/04/15 19:48:23;;;;;;;;;;;;;;;;;;5075200;28;19923;-76
2023/04/15 19:51:27;;;;;;;;;;;;;;;;;;5075293;28;19919;-76
2023/04/15 19:54:31;;;;;;;;;;;;;;;;;;5076125;28;19966;-76
2023/04/15 19:57:34;;;;;;;;;;;;;;;;;;5076064;28;19969;-76
2023/04/15 20:00:37;;;;;;;;;;;;;;;;;;5076097;28;19966;-75
2023/04/15 20:03:40;;;;;;;;;;;;;;;;;;5058596;28;20029;-76
2023/04/15 20:06:43;;;;;;;;;;;;;;;;;;5075963;28;19969;-76
2023/04/15 20:09:46;;;;;;;;;;;;;;;;;;5075769;28;19936;-76
2023/04/15 20:12:51;;;;;;;;;;;;;;;;;;5075767;28;20008;-77
2023/04/15 20:15:53;;;;;;;;;;;;;;;;;;5075718;28;19966;-76
2023/04/15 20:19:00;;;;;;;;;;;;;;;;;;5075644;28;19971;-77
2023/04/15 20:22:03;;;;;;;;;;;;;;;;;;5075620;28;19919;-76
2023/04/15 20:25:06;;;;;;;;;;;;;;;;;;5075394;28;19924;-77
2023/04/15 20:28:09;;;;;;;;;;;;;;;;;;5075766;28;19970;-77
2023/04/15 20:31:12;;;;;;;;;;;;;;;;;;5075745;28;20047;-74
2023/04/15 20:34:15;;;;;;;;;;;;;;;;;;5075331;28;20284;-75
2023/04/15 20:37:18;;;;;;;;;;;;;;;;;;5075295;28;19920;-76
2023/04/15 20:40:31;;;;;;;;;;;;;;;;;;5074887;28;20387;-76
2023/04/15 20:43:34;;;;;;;;;;;;;;;;;;5075126;28;19965;-76
2023/04/15 20:46:37;;;;;;;;;;;;;;;;;;5075148;28;19918;-76
2023/04/15 20:49:40;;;;;;;;;;;;;;;;;;5075340;28;20236;-76
2023/04/15 20:52:43;;;;;;;;;;;;;;;;;;5075042;28;19920;-75
2023/04/15 20:55:46;;;;;;;;;;;;;;;;;;5074974;28;19967;-75
2023/04/15 20:58:49;;;;;;;;;;;;;;;;;;5074933;28;19942;-76
2023/04/15 21:01:52;;;;;;;;;;;;;;;;;;5074897;28;19967;-76
2023/04/15 21:04:55;;;;;;;;;;;;;;;;;;5074669;28;19926;-76
2023/04/15 21:07:58;;;;;;;;;;;;;;;;;;5074786;28;20343;-76